Time;durP1;ratioP1;P1;durP2;ratioP2;P2;SDS_P1;SDS_P2;PMS_P1;PMS_P2;Temp;Humidity;BMP_temperature;BMP_pressure;BME280_temperature;BME280_humidity;BME280_pressure;Samples;Min_cycle;Max_cycle;Signal;HPM_P1;HPM_P2
2020/12/09 16:14:01;;;;;;;21.67;8.93;;;;;;;-3.50;55.95;101470.42;1807992;78;28557;-75
2020/12/09 16:16:29;;;;;;;18.98;8.03;;;;;;;-3.56;55.69;101469.59;1796927;78;21130;-76
2020/12/09 16:18:57;;;;;;;24.10;8.33;;;;;;;-3.62;55.77;101462.09;1831271;76;21120;-78
2020/12/09 16:21:25;;;;;;;18.35;7.37;;;;;;;-3.66;55.70;101463.31;1854064;74;21148;-80
2020/12/09 16:23:53;;;;;;;18.52;8.00;;;;;;;-3.72;55.62;101471.01;1822971;77;21366;-78
2020/12/09 16:26:21;;;;;;;31.93;7.92;;;;;;;-3.76;55.55;101468.20;1807252;78;21125;-79
2020/12/09 16:28:49;;;;;;;15.90;7.67;;;;;;;-3.80;55.36;101475.66;1849814;76;21100;-77
2020/12/09 16:31:21;;;;;;;49.25;20.57;;;;;;;-3.83;55.64;101476.39;1861624;76;21108;-77
2020/12/09 16:33:49;;;;;;;30.10;12.10;;;;;;;-3.86;55.62;101485.52;1834380;78;21088;-77
2020/12/09 16:36:17;;;;;;;24.45;8.03;;;;;;;-3.89;55.43;101473.72;1835911;76;21163;-77
2020/12/09 16:38:46;;;;;;;21.48;8.28;;;;;;;-3.91;55.62;101479.21;1815019;77;21132;-77
2020/12/09 16:41:13;;;;;;;;;;;;;;;-3.93;55.55;101480.31;1846281;76;21230;-76
2020/12/09 16:43:41;;;;;;;24.72;7.15;;;;;;;-3.93;55.50;101478.97;1824912;78;20275;-79
2020/12/09 16:46:13;;;;;;;21.12;7.70;;;;;;;-3.97;55.41;101470.82;1788210;78;21585;-78
2020/12/09 16:48:41;;;;;;;22.63;8.30;;;;;;;-4.01;55.51;101473.40;1854516;77;21123;-78
2020/12/09 16:51:09;;;;;;;23.45;7.40;;;;;;;-4.05;55.45;101473.30;1825966;77;21109;-79
2020/12/09 16:59:24;;;;;;;16.70;6.83;;;;;;;-4.09;55.60;101474.02;1823205;77;22230;-78
2020/12/09 17:01:56;;;;;;;18.55;7.33;;;;;;;-4.17;55.66;101461.77;1768928;80;21597;-76
2020/12/09 17:04:22;;;;;;;21.43;7.33;;;;;;;-4.18;55.63;101469.92;1781580;80;21136;-76
2020/12/09 17:06:50;;;;;;;25.15;8.55;;;;;;;-4.19;55.64;101462.86;1778476;79;21148;-76
2020/12/09 17:09:18;;;;;;;21.62;8.23;;;;;;;-4.18;55.55;101468.59;1777047;79;21719;-76
2020/12/09 17:11:53;;;;;;;25.10;7.85;;;;;;;-4.20;55.38;101461.19;1765077;79;21137;-78
2020/12/09 17:14:22;;;;;;;20.93;8.00;;;;;;;-4.19;55.47;101464.20;1774375;79;21715;-77
2020/12/09 17:16:54;;;;;;;20.27;8.13;;;;;;;-4.20;55.33;101454.50;1772524;80;21677;-76
2020/12/09 17:19:23;;;;;;;16.67;7.73;;;;;;;-4.24;55.38;101449.88;1709575;83;21639;-75
2020/12/09 17:21:51;;;;;;;18.83;8.63;;;;;;;-4.24;55.57;101444.53;1706047;82;21533;-76
2020/12/09 17:24:20;;;;;;;22.33;7.37;;;;;;;-4.27;55.55;101453.27;1686904;83;21883;-76
2020/12/09 17:26:48;;;;;;;23.02;8.25;;;;;;;-4.28;55.61;101450.26;1705182;83;21702;-77
2020/12/09 17:29:16;;;;;;;17.97;7.13;;;;;;;-4.25;55.72;101452.69;1683932;83;21188;-77
2020/12/09 17:31:46;;;;;;;17.57;7.05;;;;;;;-4.29;55.97;101448.55;1721129;83;21166;-79
2020/12/09 17:34:17;;;;;;;18.90;7.27;;;;;;;-4.29;55.97;101448.55;1708844;83;21183;-77
2020/12/09 17:36:45;;;;;;;18.47;7.33;;;;;;;-4.30;56.09;101450.87;1705264;83;21702;-77
2020/12/09 17:39:16;;;;;;;21.10;7.37;;;;;;;-4.33;56.27;101447.97;1723667;82;21189;-76
2020/12/09 17:41:44;;;;;;;20.07;8.27;;;;;;;-4.34;56.52;101441.39;1722870;83;21289;-77
2020/12/09 17:44:12;;;;;;;22.52;8.30;;;;;;;-4.37;56.63;101449.65;1707299;83;21656;-78
2020/12/09 17:46:42;;;;;;;23.80;8.27;;;;;;;-4.37;56.77;101449.65;1710195;83;21148;-80
2020/12/09 17:49:10;;;;;;;16.17;7.00;;;;;;;-4.37;56.95;101454.99;1703323;82;21356;-74
2020/12/09 17:51:38;;;;;;;15.78;7.47;;;;;;;-4.37;57.04;101453.17;1708555;83;21725;-76
2020/12/09 17:54:07;;;;;;;29.20;7.70;;;;;;;-4.40;57.29;101456.60;1704633;82;21164;-84
2020/12/09 17:56:35;;;;;;;20.32;7.67;;;;;;;-4.40;57.46;101452.08;1710571;80;21158;-87
2020/12/09 17:59:03;;;;;;;24.70;8.13;;;;;;;-4.45;57.89;101455.61;1705885;83;21161;-87
2020/12/09 18:01:31;;;;;;;16.27;7.53;;;;;;;-4.45;57.99;101450.78;1718632;82;21196;-80
2020/12/09 18:03:59;;;;;;;19.37;7.35;;;;;;;-4.47;58.21;101456.23;1716838;82;21529;-81
2020/12/09 18:06:27;;;;;;;18.27;8.00;;;;;;;-4.48;58.40;101451.88;1720363;83;21582;-88
2020/12/09 18:08:55;;;;;;;24.00;8.63;;;;;;;-4.51;58.75;101451.64;1714341;83;21330;-84
2020/12/09 18:11:25;;;;;;;15.60;7.43;;;;;;;-4.54;58.84;101458.55;1706724;83;21165;-83
2020/12/09 18:13:57;;;;;;;20.60;7.83;;;;;;;-4.54;58.98;101447.87;1647784;82;21624;-79
2020/12/09 18:16:27;;;;;;;16.70;7.70;;;;;;;-4.56;59.18;101456.50;1706861;82;21290;-88
2020/12/09 18:18:59;;;;;;;20.30;8.30;;;;;;;-4.58;59.36;101447.73;1710976;83;21664;-80
2020/12/09 18:25:15;;;;;;;19.43;7.70;;;;;;;-4.54;59.54;101463.89;1821679;77;22550;-76
2020/12/09 18:27:46;;;;;;;17.10;7.03;;;;;;;-4.59;59.73;101462.08;1786248;78;21701;-77
2020/12/09 18:30:19;;;;;;;21.07;8.97;;;;;;;-4.59;59.87;101458.07;1766889;80;21141;-76
2020/12/09 18:32:48;;;;;;;15.80;7.47;;;;;;;-4.58;59.87;101453.07;1736672;81;21255;-78
2020/12/09 18:35:17;;;;;;;18.27;6.77;;;;;;;-4.56;59.77;101452.49;1734054;81;21138;-77
2020/12/09 18:37:45;;;;;;;27.42;8.30;;;;;;;-4.54;59.74;101448.34;1716672;82;21750;-79
2020/12/09 18:40:13;;;;;;;16.23;7.42;;;;;;;-4.54;59.71;101437.66;1685394;83;21172;-88
2020/12/09 18:42:41;;;;;;;21.40;7.10;;;;;;;-4.55;59.67;101446.16;1738802;81;21247;-86
2020/12/09 18:45:10;;;;;;;19.98;7.35;;;;;;;-4.53;59.65;101447.39;1721597;82;21684;-80
2020/12/09 18:47:40;;;;;;;21.30;7.93;;;;;;;-4.50;59.62;101451.98;1716489;82;21171;-84
2020/12/09 18:50:09;;;;;;;25.73;7.73;;;;;;;-4.51;59.50;101455.64;1715186;82;21234;-84
2020/12/09 18:52:37;;;;;;;;;;;;;;;-4.53;59.55;101452.22;1720088;82;21157;-86
2020/12/09 18:55:05;;;;;;;;;;;;;;;-4.54;59.66;101459.03;1726391;82;20523;-88
2020/12/09 18:57:40;;;;;;;15.95;6.70;;;;;;;-4.57;59.60;101466.80;1698236;83;20514;-85
2020/12/09 19:00:09;;;;;;;21.73;7.40;;;;;;;-4.59;59.65;101470.09;1714724;82;21179;-90
2020/12/09 19:02:46;;;;;;;15.77;6.77;;;;;;;-4.58;59.68;101468.28;1728088;82;21593;-81
2020/12/09 19:05:14;;;;;;;16.73;7.30;;;;;;;-4.61;59.62;101472.04;1715130;82;21282;-84
2020/12/09 19:07:43;;;;;;;17.07;7.65;;;;;;;-4.69;59.70;101475.80;1720247;82;21665;-83
2020/12/09 19:10:11;;;;;;;;;;;;;;;-4.76;59.87;101479.93;1725350;81;21160;-86
2020/12/09 19:12:41;;;;;;;16.50;7.10;;;;;;;-4.78;59.88;101475.68;1728452;82;20238;-84
2020/12/09 19:15:09;;;;;;;19.57;7.73;;;;;;;-4.80;60.04;101481.60;1733698;81;21228;-86
2020/12/09 19:17:37;;;;;;;19.62;8.05;;;;;;;-4.82;59.89;101476.88;1716352;83;21239;-83
2020/12/09 19:20:05;;;;;;;16.48;7.25;;;;;;;-4.84;59.95;101483.69;1735304;81;21239;-83
2020/12/09 19:22:49;;;;;;;19.27;7.70;;;;;;;-4.86;60.14;101485.63;1732115;82;21192;-76
2020/12/09 19:25:17;;;;;;;20.60;7.90;;;;;;;-4.89;59.89;101487.20;1689359;83;21664;-76
2020/12/09 19:27:46;;;;;;;18.32;7.53;;;;;;;-4.92;60.17;101495.44;1731160;81;21149;-77
2020/12/09 19:30:15;;;;;;;18.50;7.10;;;;;;;-4.94;60.09;101492.05;1715937;82;21846;-78
2020/12/09 19:32:43;;;;;;;;;;;;;;;-4.93;60.13;101487.05;1734404;81;21578;-75
2020/12/09 19:35:11;;;;;;;15.32;6.55;;;;;;;-4.96;60.07;101485.98;1735761;81;20176;-76
2020/12/09 19:37:53;;;;;;;21.10;7.20;;;;;;;-4.98;60.12;101473.72;1731919;81;21183;-80
2020/12/09 19:40:19;;;;;;;19.40;7.70;;;;;;;-4.97;60.17;101486.08;1710787;82;21156;-77
2020/12/09 19:42:47;;;;;;;19.13;7.43;;;;;;;-4.96;60.00;101486.46;1731736;81;21142;-79
2020/12/09 19:45:15;;;;;;;18.15;8.00;;;;;;;-4.98;60.17;101493.75;1708131;82;21652;-77
2020/12/09 19:47:43;;;;;;;17.45;8.53;;;;;;;-5.02;60.22;101497.13;1702895;83;21177;-78
2020/12/09 19:50:16;;;;;;;19.77;9.43;;;;;;;-5.02;60.24;101497.59;1707999;83;21212;-81
2020/12/09 19:52:44;;;;;;;25.30;8.80;;;;;;;-5.04;59.96;101503.07;1702487;82;21271;-75
2020/12/09 19:55:13;;;;;;;;;;;;;;;-5.07;60.07;101500.63;1742381;81;21720;-77
2020/12/09 19:57:42;;;;;;;22.07;9.10;;;;;;;-5.07;60.02;101497.11;1721081;81;20635;-75
2020/12/09 20:00:09;;;;;;;22.70;9.58;;;;;;;-5.10;60.26;101500.86;1723864;83;21168;-78
2020/12/09 20:02:38;;;;;;;19.60;9.18;;;;;;;-5.09;60.13;101499.05;1742658;81;21152;-78
2020/12/09 20:05:07;;;;;;;21.40;8.53;;;;;;;-5.09;60.12;101498.57;1724293;81;21223;-80
2020/12/09 20:07:35;;;;;;;19.50;8.93;;;;;;;-5.10;59.99;101498.19;1712251;83;21271;-76
2020/12/09 20:10:04;;;;;;;21.05;8.73;;;;;;;-5.15;60.00;101495.03;1742759;81;21187;-78
2020/12/09 20:12:32;;;;;;;18.47;8.27;;;;;;;-5.18;59.89;101501.93;1719446;82;21160;-79
2020/12/09 20:15:01;;;;;;;22.40;7.87;;;;;;;-5.16;59.92;101496.02;1714789;83;21380;-77
2020/12/09 20:17:30;;;;;;;25.03;9.13;;;;;;;-5.18;59.73;101496.11;1730039;78;21219;-77
2020/12/09 20:19:58;;;;;;;;;;;;;;;-5.19;59.78;101499.73;1726448;82;21686;-79
2020/12/09 20:22:29;;;;;;;17.70;7.65;;;;;;;-5.20;59.77;101496.72;1720615;81;21995;-79
2020/12/09 20:24:58;;;;;;;18.63;7.87;;;;;;;-5.23;59.71;101499.62;1726470;82;21292;-78
2020/12/09 20:27:26;;;;;;;18.80;7.80;;;;;;;-5.23;59.48;101503.63;1751523;81;21132;-81
2020/12/09 20:29:55;;;;;;;;;;;;;;;-5.26;59.71;101501.66;1685285;83;21212;-85
2020/12/09 20:32:23;;;;;;;18.00;7.05;;;;;;;-5.31;59.64;101501.16;1710716;82;20244;-80
2020/12/09 20:34:56;;;;;;;20.83;7.43;;;;;;;-5.31;59.61;101498.49;1690890;82;21312;-87
2020/12/09 20:37:24;;;;;;;15.47;7.77;;;;;;;-5.31;59.62;101495.82;1701561;84;21168;-77
2020/12/09 20:39:52;;;;;;;15.70;7.22;;;;;;;-5.33;59.50;101495.95;1729629;81;21184;-77
2020/12/09 20:42:20;;;;;;;18.77;7.37;;;;;;;-5.35;59.53;101503.70;1728577;83;21592;-78
2020/12/09 20:44:48;;;;;;;16.85;6.83;;;;;;;-5.37;59.42;101498.97;1709630;82;21303;-77
2020/12/09 20:47:16;;;;;;;;;;;;;;;-5.39;59.36;101499.58;1703648;83;21189;-78
2020/12/09 20:49:44;;;;;;;18.57;6.60;;;;;;;-5.45;59.33;101498.70;1700538;82;20193;-75
2020/12/09 20:52:12;;;;;;;17.25;6.83;;;;;;;-5.47;59.41;101501.97;1718850;82;21273;-75
2020/12/09 20:54:40;;;;;;;19.55;7.33;;;;;;;-5.52;59.47;101500.99;1725011;81;21164;-75
2020/12/09 20:57:08;;;;;;;16.55;7.12;;;;;;;-5.55;59.52;101502.55;1733789;81;21658;-76
2020/12/09 20:59:38;;;;;;;19.27;8.05;;;;;;;-5.50;59.42;101495.05;1724591;81;21174;-75
2020/12/09 21:02:06;;;;;;;16.77;7.30;;;;;;;-5.52;59.17;101496.99;1698210;83;21162;-76
2020/12/09 21:04:36;;;;;;;20.43;7.55;;;;;;;-5.55;59.17;101502.55;1704091;83;21265;-78
2020/12/09 21:07:05;;;;;;;17.70;6.97;;;;;;;-5.55;59.33;101512.36;1717536;81;21192;-75
2020/12/09 21:09:33;;;;;;;17.00;7.97;;;;;;;-5.58;59.18;101508.59;1711670;83;21167;-78
2020/12/09 21:12:04;;;;;;;18.32;7.20;;;;;;;-5.58;59.18;101520.59;1718403;81;21150;-75
2020/12/09 21:14:33;;;;;;;14.80;6.80;;;;;;;-5.61;59.08;101516.80;1702084;82;21149;-78
2020/12/09 21:17:02;;;;;;;16.57;7.13;;;;;;;-5.63;58.99;101512.94;1710791;83;21332;-80
2020/12/09 21:19:31;;;;;;;16.80;7.10;;;;;;;-5.62;59.18;101512.46;1737294;81;21639;-80
2020/12/09 21:22:05;;;;;;;15.28;6.95;;;;;;;-5.63;58.95;101514.27;1735726;81;21177;-76
2020/12/09 21:24:33;;;;;;;19.07;6.93;;;;;;;-5.64;59.03;101518.39;1730486;81;21185;-82
2020/12/09 21:27:01;;;;;;;13.70;6.20;;;;;;;-5.67;59.12;101518.62;1697590;83;21171;-76
2020/12/09 21:29:29;;;;;;;16.12;6.55;;;;;;;-5.70;59.04;101516.17;1718933;81;21254;-75
2020/12/09 21:32:01;;;;;;;17.15;5.75;;;;;;;-5.70;58.99;101518.84;1708827;82;21262;-78
2020/12/09 21:34:29;;;;;;;15.80;7.07;;;;;;;-5.73;58.90;101517.73;1709637;81;21714;-79
2020/12/09 21:36:57;;;;;;;15.63;6.75;;;;;;;-5.72;58.84;101515.44;1710688;81;21614;-77
2020/12/09 21:39:25;;;;;;;19.63;6.53;;;;;;;-5.73;58.91;101514.59;1714606;83;21185;-77
2020/12/09 21:41:54;;;;;;;14.67;6.60;;;;;;;-5.74;58.77;101508.88;1732157;81;21190;-76
2020/12/09 21:44:23;;;;;;;14.10;6.10;;;;;;;-5.77;58.93;101509.95;1714542;81;21169;-78
2020/12/09 21:46:51;;;;;;;17.07;6.15;;;;;;;-5.77;58.72;101516.61;1717125;81;21140;-76
2020/12/09 21:49:20;;;;;;;20.88;7.03;;;;;;;-5.80;58.99;101506.20;1733337;81;21306;-75
2020/12/09 21:51:48;;;;;;;14.97;6.27;;;;;;;-5.80;59.07;101508.87;1701711;82;21298;-76
2020/12/09 21:54:16;;;;;;;17.70;6.17;;;;;;;-5.80;58.83;101516.87;1712767;82;21681;-75
2020/12/09 21:56:44;;;;;;;14.75;6.05;;;;;;;-5.79;58.71;101514.55;1707698;82;21156;-74
2020/12/09 21:59:12;;;;;;;13.28;6.37;;;;;;;-5.77;58.50;101520.61;1723588;82;21150;-77
2020/12/09 22:01:40;;;;;;;14.80;6.03;;;;;;;-5.79;58.87;101516.36;1724335;82;21700;-77
2020/12/09 22:04:12;;;;;;;17.20;6.80;;;;;;;-5.80;58.67;101520.86;1678384;82;21180;-74
2020/12/09 22:06:42;;;;;;;15.70;6.10;;;;;;;-5.82;58.90;101514.77;1711583;82;21163;-74
2020/12/09 22:09:20;;;;;;;12.67;6.17;;;;;;;-5.82;58.84;101513.44;1709495;82;21207;-75
2020/12/09 22:11:55;;;;;;;;;;;;;;;-5.82;58.64;101509.44;1717727;82;21140;-75
2020/12/09 22:14:26;;;;;;;15.83;6.67;;;;;;;-5.82;58.67;101515.28;1708305;82;20210;-74
2020/12/09 22:16:58;;;;;;;15.13;6.67;;;;;;;-5.82;58.85;101504.61;1726197;81;21182;-76
2020/12/09 22:19:33;;;;;;;26.33;6.93;;;;;;;-5.82;58.77;101505.44;1721908;81;21214;-77
2020/12/09 22:22:02;;;;;;;15.80;7.10;;;;;;;-5.81;58.58;101504.97;1694155;83;21177;-75
2020/12/09 22:24:30;;;;;;;20.92;7.85;;;;;;;-5.83;58.64;101502.42;1736283;81;21230;-74
2020/12/09 22:26:58;;;;;;;16.87;7.80;;;;;;;-5.87;58.66;101511.63;1697859;82;21244;-76
2020/12/09 22:29:26;;;;;;;16.23;6.75;;;;;;;-5.88;58.68;101507.28;1701564;82;21277;-76
2020/12/09 22:31:54;;;;;;;23.47;7.37;;;;;;;-5.91;58.81;101502.64;1713920;83;21775;-76
2020/12/09 22:40:21;;;;;;;19.50;8.03;;;;;;;-5.94;59.18;101504.20;1822300;77;22578;-77
2020/12/09 22:42:49;;;;;;;14.07;6.80;;;;;;;-5.97;59.30;101505.27;1727123;81;21160;-76
2020/12/09 22:47:56;;;;;;;15.83;6.67;;;;;;;-5.95;59.29;101494.52;1787498;77;22648;-79
2020/12/09 22:50:26;;;;;;;16.07;6.57;;;;;;;-6.00;59.33;101486.01;1739488;81;21255;-77
2020/12/09 22:52:54;;;;;;;13.80;6.62;;;;;;;-6.04;59.43;101486.70;1755130;80;21204;-76
2020/12/09 22:55:22;;;;;;;14.87;6.53;;;;;;;-6.05;59.56;101489.02;1762897;80;21244;-75
2020/12/09 22:57:50;;;;;;;13.95;6.70;;;;;;;-6.08;59.82;101487.91;1747362;81;21343;-75
2020/12/09 23:00:19;;;;;;;17.37;7.47;;;;;;;-6.08;60.01;101493.70;1759246;81;21195;-75
2020/12/09 23:02:47;;;;;;;15.65;6.95;;;;;;;-6.12;60.04;101495.73;1748400;81;21118;-76
2020/12/09 23:05:15;;;;;;;;;;;;;;;-6.14;60.38;101489.67;1676190;85;21628;-77
2020/12/09 23:07:45;;;;;;;16.47;7.40;;;;;;;-6.13;60.34;101488.72;1718214;82;20242;-85
2020/12/09 23:10:13;;;;;;;16.23;6.55;;;;;;;-6.12;60.39;101482.92;1701313;83;21208;-82
2020/12/09 23:12:41;;;;;;;15.98;6.72;;;;;;;-6.10;60.36;101489.84;1689264;84;21168;-82
2020/12/09 23:15:09;;;;;;;;;;;;;;;-6.08;60.36;101494.56;1731245;81;21316;-83
2020/12/09 23:17:37;;;;;;;15.40;6.22;;;;;;;-6.09;60.37;101492.85;1703278;83;20847;-84
2020/12/09 23:20:06;;;;;;;14.40;6.35;;;;;;;-6.10;60.54;101494.30;1718837;82;21156;-82
2020/12/09 23:22:35;;;;;;;15.13;6.40;;;;;;;-6.13;60.64;101498.05;1716925;81;21155;-76
2020/12/09 23:25:04;;;;;;;17.13;6.70;;;;;;;-6.16;60.73;101501.41;1721142;81;21156;-81
2020/12/09 23:27:33;;;;;;;15.10;6.57;;;;;;;-6.20;60.77;101500.80;1714971;82;21579;-80
2020/12/09 23:30:03;;;;;;;16.70;6.50;;;;;;;-6.22;60.89;101488.03;1684292;84;21197;-80
2020/12/09 23:32:32;;;;;;;16.30;7.20;;;;;;;-6.24;61.13;101485.12;1690655;83;21209;-79
2020/12/09 23:35:00;;;;;;;17.33;6.37;;;;;;;-6.24;61.18;101490.45;1688928;83;21679;-82
2020/12/09 23:37:30;;;;;;;15.77;6.80;;;;;;;-6.24;61.29;101489.97;1713014;83;21265;-83
2020/12/09 23:39:58;;;;;;;16.25;7.25;;;;;;;-6.23;61.47;101495.68;1693938;84;21211;-81
2020/12/09 23:42:25;;;;;;;19.25;7.15;;;;;;;-6.21;61.39;101499.08;1701841;84;21172;-82
2020/12/09 23:44:53;;;;;;;20.52;7.42;;;;;;;-6.20;61.48;101505.27;1681614;83;21275;-81
2020/12/09 23:47:21;;;;;;;14.58;6.22;;;;;;;-6.20;61.46;101507.45;1701264;82;21389;-82
2020/12/09 23:49:49;;;;;;;15.68;6.55;;;;;;;-6.20;61.30;101510.12;1700866;83;21256;-79
2020/12/09 23:52:17;;;;;;;21.85;6.78;;;;;;;-6.23;61.32;101506.34;1702043;80;21200;-77
2020/12/09 23:54:45;;;;;;;16.77;6.92;;;;;;;-6.24;61.42;101511.76;1715320;83;21156;-77
2020/12/09 23:57:12;;;;;;;19.30;7.50;;;;;;;-6.26;61.63;101511.87;1713332;82;21114;-85
2020/12/09 23:59:41;;;;;;;17.02;7.35;;;;;;;-6.28;61.79;101509.81;1685718;83;21168;-79
